sensor_id;sensor_type;location;lat;lon;timestamp;P1;durP1;ratioP1;P2;durP2;ratioP2
6580;SDS011;3324;50.796;7.228;2023-07-20T00:01:46;12.20;;;11.40;;
6580;SDS011;3324;50.796;7.228;2023-07-20T00:04:13;11.70;;;11.10;;
6580;SDS011;3324;50.796;7.228;2023-07-20T00:06:39;11.60;;;11.00;;
6580;SDS011;3324;50.796;7.228;2023-07-20T00:09:05;11.70;;;11.10;;
6580;SDS011;3324;50.796;7.228;2023-07-20T00:11:31;11.40;;;10.90;;
6580;SDS011;3324;50.796;7.228;2023-07-20T00:14:01;11.45;;;10.90;;
6580;SDS011;3324;50.796;7.228;2023-07-20T00:16:27;11.70;;;11.10;;
6580;SDS011;3324;50.796;7.228;2023-07-20T00:18:52;12.45;;;11.65;;
6580;SDS011;3324;50.796;7.228;2023-07-20T00:21:18;11.70;;;11.10;;
6580;SDS011;3324;50.796;7.228;2023-07-20T00:23:44;11.40;;;10.90;;
6580;SDS011;3324;50.796;7.228;2023-07-20T00:26:09;12.30;;;11.50;;
6580;SDS011;3324;50.796;7.228;2023-07-20T00:28:35;11.80;;;11.20;;
6580;SDS011;3324;50.796;7.228;2023-07-20T00:31:01;11.60;;;11.00;;
6580;SDS011;3324;50.796;7.228;2023-07-20T00:33:27;11.90;;;11.30;;
6580;SDS011;3324;50.796;7.228;2023-07-20T00:35:53;11.80;;;11.20;;
6580;SDS011;3324;50.796;7.228;2023-07-20T00:38:20;11.80;;;11.20;;
6580;SDS011;3324;50.796;7.228;2023-07-20T00:40:46;11.60;;;11.00;;
6580;SDS011;3324;50.796;7.228;2023-07-20T00:43:13;11.30;;;10.80;;
6580;SDS011;3324;50.796;7.228;2023-07-20T00:45:39;12.50;;;11.40;;
6580;SDS011;3324;50.796;7.228;2023-07-20T00:48:05;11.05;;;10.55;;
6580;SDS011;3324;50.796;7.228;2023-07-20T00:50:32;10.30;;;9.90;;
6580;SDS011;3324;50.796;7.228;2023-07-20T00:52:58;10.70;;;10.15;;
6580;SDS011;3324;50.796;7.228;2023-07-20T00:55:24;10.50;;;10.10;;
6580;SDS011;3324;50.796;7.228;2023-07-20T00:57:51;10.15;;;9.85;;
6580;SDS011;3324;50.796;7.228;2023-07-20T01:00:17;10.60;;;10.20;;
6580;SDS011;3324;50.796;7.228;2023-07-20T01:02:43;10.95;;;10.55;;
6580;SDS011;3324;50.796;7.228;2023-07-20T01:05:09;10.55;;;10.15;;
6580;SDS011;3324;50.796;7.228;2023-07-20T01:07:54;11.20;;;10.70;;
6580;SDS011;3324;50.796;7.228;2023-07-20T01:10:35;10.40;;;10.00;;
6580;SDS011;3324;50.796;7.228;2023-07-20T01:13:09;10.50;;;10.10;;
6580;SDS011;3324;50.796;7.228;2023-07-20T01:15:35;10.70;;;10.30;;
6580;SDS011;3324;50.796;7.228;2023-07-20T01:18:01;10.70;;;10.30;;
6580;SDS011;3324;50.796;7.228;2023-07-20T01:20:29;10.80;;;10.40;;
6580;SDS011;3324;50.796;7.228;2023-07-20T01:25:37;10.70;;;10.30;;
6580;SDS011;3324;50.796;7.228;2023-07-20T01:28:45;10.47;;;10.07;;
6580;SDS011;3324;50.796;7.228;2023-07-20T01:31:27;10.33;;;9.93;;
6580;SDS011;3324;50.796;7.228;2023-07-20T01:33:56;10.25;;;9.90;;
6580;SDS011;3324;50.796;7.228;2023-07-20T01:36:26;10.90;;;10.50;;
6580;SDS011;3324;50.796;7.228;2023-07-20T01:38:55;11.20;;;10.70;;
6580;SDS011;3324;50.796;7.228;2023-07-20T01:41:21;10.50;;;10.10;;
6580;SDS011;3324;50.796;7.228;2023-07-20T01:43:48;10.50;;;10.10;;
6580;SDS011;3324;50.796;7.228;2023-07-20T01:46:13;10.40;;;10.00;;
6580;SDS011;3324;50.796;7.228;2023-07-20T01:48:39;11.30;;;10.70;;
6580;SDS011;3324;50.796;7.228;2023-07-20T01:51:04;10.80;;;10.40;;
6580;SDS011;3324;50.796;7.228;2023-07-20T01:53:30;10.45;;;10.05;;
6580;SDS011;3324;50.796;7.228;2023-07-20T01:55:56;11.10;;;10.50;;
6580;SDS011;3324;50.796;7.228;2023-07-20T01:58:22;10.20;;;9.90;;
6580;SDS011;3324;50.796;7.228;2023-07-20T02:00:48;10.70;;;10.30;;
6580;SDS011;3324;50.796;7.228;2023-07-20T02:03:13;10.13;;;9.83;;
6580;SDS011;3324;50.796;7.228;2023-07-20T02:05:39;11.40;;;10.80;;
6580;SDS011;3324;50.796;7.228;2023-07-20T02:08:07;10.70;;;10.30;;
6580;SDS011;3324;50.796;7.228;2023-07-20T02:10:32;11.10;;;10.70;;
6580;SDS011;3324;50.796;7.228;2023-07-20T02:12:58;11.70;;;11.00;;
6580;SDS011;3324;50.796;7.228;2023-07-20T02:15:23;11.10;;;10.60;;
6580;SDS011;3324;50.796;7.228;2023-07-20T02:17:49;11.10;;;10.60;;
6580;SDS011;3324;50.796;7.228;2023-07-20T02:20:15;11.90;;;11.20;;
6580;SDS011;3324;50.796;7.228;2023-07-20T02:22:40;10.95;;;10.55;;
6580;SDS011;3324;50.796;7.228;2023-07-20T02:25:06;10.50;;;10.10;;
6580;SDS011;3324;50.796;7.228;2023-07-20T02:27:35;11.20;;;10.60;;
6580;SDS011;3324;50.796;7.228;2023-07-20T02:30:02;11.60;;;10.90;;
6580;SDS011;3324;50.796;7.228;2023-07-20T02:32:29;11.10;;;10.50;;
6580;SDS011;3324;50.796;7.228;2023-07-20T02:34:55;11.17;;;10.57;;
6580;SDS011;3324;50.796;7.228;2023-07-20T02:37:21;11.20;;;10.60;;
6580;SDS011;3324;50.796;7.228;2023-07-20T02:39:46;9.90;;;9.60;;
6580;SDS011;3324;50.796;7.228;2023-07-20T02:42:12;10.50;;;10.10;;
6580;SDS011;3324;50.796;7.228;2023-07-20T02:44:38;11.20;;;10.60;;
6580;SDS011;3324;50.796;7.228;2023-07-20T02:47:03;10.55;;;10.15;;
6580;SDS011;3324;50.796;7.228;2023-07-20T02:49:29;10.40;;;10.00;;
6580;SDS011;3324;50.796;7.228;2023-07-20T02:51:55;11.37;;;10.87;;
6580;SDS011;3324;50.796;7.228;2023-07-20T02:54:20;11.90;;;11.20;;
6580;SDS011;3324;50.796;7.228;2023-07-20T02:56:46;11.20;;;10.70;;
6580;SDS011;3324;50.796;7.228;2023-07-20T02:59:12;11.10;;;10.60;;
6580;SDS011;3324;50.796;7.228;2023-07-20T03:01:37;11.70;;;11.00;;
6580;SDS011;3324;50.796;7.228;2023-07-20T03:04:03;9.90;;;9.60;;
6580;SDS011;3324;50.796;7.228;2023-07-20T03:06:29;10.30;;;9.90;;
6580;SDS011;3324;50.796;7.228;2023-07-20T03:08:54;11.30;;;10.70;;
6580;SDS011;3324;50.796;7.228;2023-07-20T03:11:20;10.90;;;10.50;;
6580;SDS011;3324;50.796;7.228;2023-07-20T03:13:46;10.40;;;10.00;;
6580;SDS011;3324;50.796;7.228;2023-07-20T03:16:13;10.80;;;10.40;;
6580;SDS011;3324;50.796;7.228;2023-07-20T03:18:44;11.10;;;10.50;;
6580;SDS011;3324;50.796;7.228;2023-07-20T03:21:10;11.05;;;10.55;;
6580;SDS011;3324;50.796;7.228;2023-07-20T03:23:36;10.80;;;10.20;;
6580;SDS011;3324;50.796;7.228;2023-07-20T03:26:03;10.00;;;9.70;;
6580;SDS011;3324;50.796;7.228;2023-07-20T03:28:29;9.55;;;9.25;;
6580;SDS011;3324;50.796;7.228;2023-07-20T03:30:55;9.60;;;9.30;;
6580;SDS011;3324;50.796;7.228;2023-07-20T03:33:22;9.60;;;9.30;;
6580;SDS011;3324;50.796;7.228;2023-07-20T03:35:52;10.50;;;10.00;;
6580;SDS011;3324;50.796;7.228;2023-07-20T03:38:18;10.70;;;10.20;;
6580;SDS011;3324;50.796;7.228;2023-07-20T03:43:23;10.30;;;9.90;;
6580;SDS011;3324;50.796;7.228;2023-07-20T03:45:50;10.45;;;10.05;;
6580;SDS011;3324;50.796;7.228;2023-07-20T03:48:16;10.20;;;9.90;;
6580;SDS011;3324;50.796;7.228;2023-07-20T03:50:47;11.00;;;10.40;;
6580;SDS011;3324;50.796;7.228;2023-07-20T03:53:13;9.90;;;9.60;;
6580;SDS011;3324;50.796;7.228;2023-07-20T03:55:40;11.00;;;10.40;;
6580;SDS011;3324;50.796;7.228;2023-07-20T03:58:15;10.80;;;10.20;;
6580;SDS011;3324;50.796;7.228;2023-07-20T04:00:48;11.27;;;10.68;;
6580;SDS011;3324;50.796;7.228;2023-07-20T04:03:18;9.80;;;9.50;;
6580;SDS011;3324;50.796;7.228;2023-07-20T04:05:44;10.00;;;9.70;;
6580;SDS011;3324;50.796;7.228;2023-07-20T04:08:10;10.43;;;9.85;;
6580;SDS011;3324;50.796;7.228;2023-07-20T04:10:36;10.70;;;10.30;;
6580;SDS011;3324;50.796;7.228;2023-07-20T04:13:02;10.10;;;9.80;;
6580;SDS011;3324;50.796;7.228;2023-07-20T04:15:28;10.10;;;9.80;;
6580;SDS011;3324;50.796;7.228;2023-07-20T04:17:54;10.13;;;9.82;;
6580;SDS011;3324;50.796;7.228;2023-07-20T04:20:21;11.00;;;10.60;;
6580;SDS011;3324;50.796;7.228;2023-07-20T04:22:47;10.50;;;10.10;;
6580;SDS011;3324;50.796;7.228;2023-07-20T04:25:12;10.70;;;10.30;;
6580;SDS011;3324;50.796;7.228;2023-07-20T04:27:38;11.35;;;10.75;;
6580;SDS011;3324;50.796;7.228;2023-07-20T04:30:04;10.10;;;9.80;;
6580;SDS011;3324;50.796;7.228;2023-07-20T04:32:35;11.50;;;10.90;;
6580;SDS011;3324;50.796;7.228;2023-07-20T04:35:01;11.13;;;10.53;;
6580;SDS011;3324;50.796;7.228;2023-07-20T04:37:30;10.40;;;10.00;;
6580;SDS011;3324;50.796;7.228;2023-07-20T04:39:56;10.70;;;10.30;;
6580;SDS011;3324;50.796;7.228;2023-07-20T04:42:21;10.60;;;10.20;;
6580;SDS011;3324;50.796;7.228;2023-07-20T04:44:47;11.03;;;10.43;;
6580;SDS011;3324;50.796;7.228;2023-07-20T04:47:12;10.40;;;10.00;;
6580;SDS011;3324;50.796;7.228;2023-07-20T04:49:38;10.70;;;10.30;;
6580;SDS011;3324;50.796;7.228;2023-07-20T04:52:04;11.40;;;10.80;;
6580;SDS011;3324;50.796;7.228;2023-07-20T04:54:30;10.05;;;9.75;;
6580;SDS011;3324;50.796;7.228;2023-07-20T04:56:55;9.70;;;9.40;;
6580;SDS011;3324;50.796;7.228;2023-07-20T04:59:21;9.70;;;9.40;;
6580;SDS011;3324;50.796;7.228;2023-07-20T05:01:46;10.30;;;9.80;;
6580;SDS011;3324;50.796;7.228;2023-07-20T05:04:12;9.50;;;9.20;;
6580;SDS011;3324;50.796;7.228;2023-07-20T05:06:37;9.30;;;9.10;;
6580;SDS011;3324;50.796;7.228;2023-07-20T05:09:04;10.45;;;9.95;;
6580;SDS011;3324;50.796;7.228;2023-07-20T05:11:32;10.35;;;9.95;;
6580;SDS011;3324;50.796;7.228;2023-07-20T05:13:58;10.10;;;9.80;;
6580;SDS011;3324;50.796;7.228;2023-07-20T05:16:24;10.43;;;10.03;;
6580;SDS011;3324;50.796;7.228;2023-07-20T05:18:50;10.10;;;9.60;;
6580;SDS011;3324;50.796;7.228;2023-07-20T05:21:16;10.30;;;9.80;;
6580;SDS011;3324;50.796;7.228;2023-07-20T05:23:41;9.83;;;9.53;;
6580;SDS011;3324;50.796;7.228;2023-07-20T05:26:07;9.70;;;9.40;;
6580;SDS011;3324;50.796;7.228;2023-07-20T05:28:33;10.70;;;10.20;;
6580;SDS011;3324;50.796;7.228;2023-07-20T05:30:59;9.70;;;9.30;;
6580;SDS011;3324;50.796;7.228;2023-07-20T05:33:27;9.50;;;9.20;;
6580;SDS011;3324;50.796;7.228;2023-07-20T05:35:52;10.10;;;9.80;;
6580;SDS011;3324;50.796;7.228;2023-07-20T05:38:18;10.90;;;10.30;;
6580;SDS011;3324;50.796;7.228;2023-07-20T05:40:44;10.60;;;10.20;;
6580;SDS011;3324;50.796;7.228;2023-07-20T05:43:10;10.40;;;10.00;;
6580;SDS011;3324;50.796;7.228;2023-07-20T05:45:36;10.60;;;10.20;;
6580;SDS011;3324;50.796;7.228;2023-07-20T05:48:02;11.20;;;10.60;;
6580;SDS011;3324;50.796;7.228;2023-07-20T05:50:28;10.00;;;9.70;;
6580;SDS011;3324;50.796;7.228;2023-07-20T05:52:53;10.00;;;9.70;;
6580;SDS011;3324;50.796;7.228;2023-07-20T05:55:19;9.60;;;9.30;;
6580;SDS011;3324;50.796;7.228;2023-07-20T05:57:45;9.60;;;9.30;;
6580;SDS011;3324;50.796;7.228;2023-07-20T06:00:12;9.75;;;9.45;;
6580;SDS011;3324;50.796;7.228;2023-07-20T06:02:39;9.80;;;9.50;;
6580;SDS011;3324;50.796;7.228;2023-07-20T06:05:05;10.40;;;9.90;;
6580;SDS011;3324;50.796;7.228;2023-07-20T06:07:34;11.00;;;10.40;;
6580;SDS011;3324;50.796;7.228;2023-07-20T06:10:01;10.90;;;10.30;;
6580;SDS011;3324;50.796;7.228;2023-07-20T06:12:27;10.70;;;10.20;;
6580;SDS011;3324;50.796;7.228;2023-07-20T06:14:53;10.50;;;10.00;;
6580;SDS011;3324;50.796;7.228;2023-07-20T06:17:18;10.70;;;10.30;;
6580;SDS011;3324;50.796;7.228;2023-07-20T06:19:44;10.00;;;9.70;;
6580;SDS011;3324;50.796;7.228;2023-07-20T06:22:10;11.00;;;10.40;;
6580;SDS011;3324;50.796;7.228;2023-07-20T06:24:35;11.00;;;10.50;;
6580;SDS011;3324;50.796;7.228;2023-07-20T06:27:01;11.00;;;10.50;;
6580;SDS011;3324;50.796;7.228;2023-07-20T06:29:27;11.00;;;10.40;;
6580;SDS011;3324;50.796;7.228;2023-07-20T06:31:53;11.00;;;10.40;;
6580;SDS011;3324;50.796;7.228;2023-07-20T06:34:18;10.70;;;10.30;;
6580;SDS011;3324;50.796;7.228;2023-07-20T06:36:44;11.10;;;10.60;;
6580;SDS011;3324;50.796;7.228;2023-07-20T06:39:10;11.00;;;10.40;;
6580;SDS011;3324;50.796;7.228;2023-07-20T06:41:36;10.90;;;10.40;;
6580;SDS011;3324;50.796;7.228;2023-07-20T06:44:01;10.90;;;10.50;;
6580;SDS011;3324;50.796;7.228;2023-07-20T06:46:28;11.20;;;10.70;;
6580;SDS011;3324;50.796;7.228;2023-07-20T06:48:53;11.10;;;10.60;;
6580;SDS011;3324;50.796;7.228;2023-07-20T06:51:19;11.50;;;10.80;;
6580;SDS011;3324;50.796;7.228;2023-07-20T06:53:45;10.60;;;10.20;;
6580;SDS011;3324;50.796;7.228;2023-07-20T06:56:11;10.63;;;10.23;;
6580;SDS011;3324;50.796;7.228;2023-07-20T06:58:36;10.80;;;10.40;;
6580;SDS011;3324;50.796;7.228;2023-07-20T07:01:05;11.40;;;10.80;;
6580;SDS011;3324;50.796;7.228;2023-07-20T07:03:32;11.20;;;10.60;;
6580;SDS011;3324;50.796;7.228;2023-07-20T07:05:58;11.00;;;10.40;;
6580;SDS011;3324;50.796;7.228;2023-07-20T07:08:24;10.80;;;10.40;;
6580;SDS011;3324;50.796;7.228;2023-07-20T07:10:50;11.00;;;10.50;;
6580;SDS011;3324;50.796;7.228;2023-07-20T07:13:16;12.90;;;11.70;;
6580;SDS011;3324;50.796;7.228;2023-07-20T07:15:42;11.50;;;11.00;;
6580;SDS011;3324;50.796;7.228;2023-07-20T07:18:07;10.75;;;10.35;;
6580;SDS011;3324;50.796;7.228;2023-07-20T07:20:33;11.40;;;10.90;;
6580;SDS011;3324;50.796;7.228;2023-07-20T07:22:59;12.40;;;11.60;;
6580;SDS011;3324;50.796;7.228;2023-07-20T07:25:25;12.10;;;11.30;;
6580;SDS011;3324;50.796;7.228;2023-07-20T07:27:53;11.90;;;11.20;;
6580;SDS011;3324;50.796;7.228;2023-07-20T07:30:19;11.53;;;10.83;;
6580;SDS011;3324;50.796;7.228;2023-07-20T07:32:45;11.57;;;10.87;;
6580;SDS011;3324;50.796;7.228;2023-07-20T07:35:11;11.10;;;10.60;;
6580;SDS011;3324;50.796;7.228;2023-07-20T07:37:37;11.20;;;10.70;;
6580;SDS011;3324;50.796;7.228;2023-07-20T07:40:03;11.00;;;10.50;;
6580;SDS011;3324;50.796;7.228;2023-07-20T07:42:30;11.10;;;10.60;;
6580;SDS011;3324;50.796;7.228;2023-07-20T07:44:56;11.10;;;10.60;;
6580;SDS011;3324;50.796;7.228;2023-07-20T07:47:22;11.30;;;10.80;;
6580;SDS011;3324;50.796;7.228;2023-07-20T07:49:47;11.50;;;10.80;;
6580;SDS011;3324;50.796;7.228;2023-07-20T07:52:13;10.90;;;10.40;;
6580;SDS011;3324;50.796;7.228;2023-07-20T07:54:39;11.20;;;10.70;;
6580;SDS011;3324;50.796;7.228;2023-07-20T07:57:05;12.15;;;11.40;;
6580;SDS011;3324;50.796;7.228;2023-07-20T07:59:31;11.00;;;10.50;;
6580;SDS011;3324;50.796;7.228;2023-07-20T08:02:01;12.70;;;11.90;;
6580;SDS011;3324;50.796;7.228;2023-07-20T08:04:28;13.10;;;12.20;;
6580;SDS011;3324;50.796;7.228;2023-07-20T08:06:53;13.05;;;12.15;;
6580;SDS011;3324;50.796;7.228;2023-07-20T08:09:19;12.80;;;12.10;;
6580;SDS011;3324;50.796;7.228;2023-07-20T08:14:10;11.80;;;11.20;;
6580;SDS011;3324;50.796;7.228;2023-07-20T08:16:35;12.67;;;11.97;;
6580;SDS011;3324;50.796;7.228;2023-07-20T08:19:01;13.00;;;12.10;;
6580;SDS011;3324;50.796;7.228;2023-07-20T08:21:27;11.80;;;11.20;;
6580;SDS011;3324;50.796;7.228;2023-07-20T08:23:53;11.47;;;10.90;;
6580;SDS011;3324;50.796;7.228;2023-07-20T08:26:18;12.20;;;11.40;;
6580;SDS011;3324;50.796;7.228;2023-07-20T08:28:47;11.80;;;11.20;;
6580;SDS011;3324;50.796;7.228;2023-07-20T08:31:13;13.20;;;12.40;;
6580;SDS011;3324;50.796;7.228;2023-07-20T08:33:38;11.80;;;11.20;;
6580;SDS011;3324;50.796;7.228;2023-07-20T08:36:04;12.80;;;12.00;;
6580;SDS011;3324;50.796;7.228;2023-07-20T08:38:30;12.40;;;11.70;;
6580;SDS011;3324;50.796;7.228;2023-07-20T08:40:56;12.65;;;11.95;;
6580;SDS011;3324;50.796;7.228;2023-07-20T08:43:24;13.80;;;12.80;;
6580;SDS011;3324;50.796;7.228;2023-07-20T08:45:50;13.10;;;12.40;;
6580;SDS011;3324;50.796;7.228;2023-07-20T08:48:18;13.50;;;12.60;;
6580;SDS011;3324;50.796;7.228;2023-07-20T08:50:46;12.80;;;12.10;;
6580;SDS011;3324;50.796;7.228;2023-07-20T08:53:14;13.30;;;12.40;;
6580;SDS011;3324;50.796;7.228;2023-07-20T08:55:40;13.40;;;12.60;;
6580;SDS011;3324;50.796;7.228;2023-07-20T08:58:09;13.85;;;13.00;;
6580;SDS011;3324;50.796;7.228;2023-07-20T09:00:37;14.40;;;13.30;;
6580;SDS011;3324;50.796;7.228;2023-07-20T09:03:03;15.00;;;14.00;;
6580;SDS011;3324;50.796;7.228;2023-07-20T09:05:30;15.00;;;14.00;;
6580;SDS011;3324;50.796;7.228;2023-07-20T09:07:55;15.60;;;14.50;;
6580;SDS011;3324;50.796;7.228;2023-07-20T09:10:21;15.80;;;14.70;;
6580;SDS011;3324;50.796;7.228;2023-07-20T09:12:48;17.20;;;15.50;;
6580;SDS011;3324;50.796;7.228;2023-07-20T09:15:14;16.10;;;14.80;;
6580;SDS011;3324;50.796;7.228;2023-07-20T09:17:41;14.00;;;13.05;;
6580;SDS011;3324;50.796;7.228;2023-07-20T09:20:11;16.40;;;15.30;;
6580;SDS011;3324;50.796;7.228;2023-07-20T09:22:38;15.95;;;14.75;;
6580;SDS011;3324;50.796;7.228;2023-07-20T09:25:07;14.75;;;13.85;;
6580;SDS011;3324;50.796;7.228;2023-07-20T09:27:40;15.55;;;14.35;;
6580;SDS011;3324;50.796;7.228;2023-07-20T09:30:07;14.65;;;13.75;;
6580;SDS011;3324;50.796;7.228;2023-07-20T09:32:39;14.60;;;13.50;;
6580;SDS011;3324;50.796;7.228;2023-07-20T09:35:12;16.00;;;14.80;;
6580;SDS011;3324;50.796;7.228;2023-07-20T09:37:39;13.55;;;12.75;;
6580;SDS011;3324;50.796;7.228;2023-07-20T09:40:06;14.80;;;13.80;;
6580;SDS011;3324;50.796;7.228;2023-07-20T09:42:34;14.40;;;13.50;;
6580;SDS011;3324;50.796;7.228;2023-07-20T09:45:00;15.40;;;14.40;;
6580;SDS011;3324;50.796;7.228;2023-07-20T09:47:26;14.35;;;13.45;;
6580;SDS011;3324;50.796;7.228;2023-07-20T09:49:59;14.50;;;13.60;;
6580;SDS011;3324;50.796;7.228;2023-07-20T09:52:25;15.80;;;14.70;;
6580;SDS011;3324;50.796;7.228;2023-07-20T09:54:51;17.10;;;15.70;;
6580;SDS011;3324;50.796;7.228;2023-07-20T09:57:17;16.60;;;15.30;;
6580;SDS011;3324;50.796;7.228;2023-07-20T09:59:43;15.40;;;14.30;;
6580;SDS011;3324;50.796;7.228;2023-07-20T10:02:11;15.03;;;14.03;;
6580;SDS011;3324;50.796;7.228;2023-07-20T10:04:48;18.93;;;16.93;;
6580;SDS011;3324;50.796;7.228;2023-07-20T10:07:16;17.40;;;15.90;;
6580;SDS011;3324;50.796;7.228;2023-07-20T10:09:46;16.03;;;14.83;;
6580;SDS011;3324;50.796;7.228;2023-07-20T10:12:13;17.30;;;15.80;;
6580;SDS011;3324;50.796;7.228;2023-07-20T10:14:41;16.50;;;15.30;;
6580;SDS011;3324;50.796;7.228;2023-07-20T10:17:15;15.70;;;14.60;;
6580;SDS011;3324;50.796;7.228;2023-07-20T10:19:44;16.30;;;15.10;;
6580;SDS011;3324;50.796;7.228;2023-07-20T10:22:14;17.30;;;15.85;;
6580;SDS011;3324;50.796;7.228;2023-07-20T10:24:44;16.50;;;15.30;;
6580;SDS011;3324;50.796;7.228;2023-07-20T10:27:12;17.20;;;15.90;;
6580;SDS011;3324;50.796;7.228;2023-07-20T10:29:39;17.00;;;15.60;;
6580;SDS011;3324;50.796;7.228;2023-07-20T10:32:05;18.20;;;16.60;;
6580;SDS011;3324;50.796;7.228;2023-07-20T10:34:32;17.70;;;16.30;;
6580;SDS011;3324;50.796;7.228;2023-07-20T10:36:58;19.25;;;17.45;;
6580;SDS011;3324;50.796;7.228;2023-07-20T10:39:24;17.50;;;16.10;;
6580;SDS011;3324;50.796;7.228;2023-07-20T10:42:02;16.90;;;15.60;;
6580;SDS011;3324;50.796;7.228;2023-07-20T10:44:41;17.00;;;15.70;;
6580;SDS011;3324;50.796;7.228;2023-07-20T10:47:12;17.80;;;16.40;;
6580;SDS011;3324;50.796;7.228;2023-07-20T10:52:23;17.60;;;16.10;;
6580;SDS011;3324;50.796;7.228;2023-07-20T10:54:50;16.10;;;14.90;;
6580;SDS011;3324;50.796;7.228;2023-07-20T10:57:22;16.20;;;15.00;;
6580;SDS011;3324;50.796;7.228;2023-07-20T11:00:18;18.80;;;17.20;;
6580;SDS011;3324;50.796;7.228;2023-07-20T11:02:44;19.05;;;17.25;;
6580;SDS011;3324;50.796;7.228;2023-07-20T11:05:44;19.30;;;17.60;;
6580;SDS011;3324;50.796;7.228;2023-07-20T11:08:05;19.47;;;17.57;;
6580;SDS011;3324;50.796;7.228;2023-07-20T11:10:35;19.10;;;17.40;;
6580;SDS011;3324;50.796;7.228;2023-07-20T11:15:47;18.40;;;16.70;;
6580;SDS011;3324;50.796;7.228;2023-07-20T11:18:33;17.50;;;16.10;;
6580;SDS011;3324;50.796;7.228;2023-07-20T11:20:59;17.80;;;16.40;;
6580;SDS011;3324;50.796;7.228;2023-07-20T11:23:25;17.10;;;15.80;;
6580;SDS011;3324;50.796;7.228;2023-07-20T11:25:51;19.60;;;17.60;;
6580;SDS011;3324;50.796;7.228;2023-07-20T11:28:16;18.20;;;16.50;;
6580;SDS011;3324;50.796;7.228;2023-07-20T11:30:42;17.60;;;16.20;;
6580;SDS011;3324;50.796;7.228;2023-07-20T11:33:08;18.70;;;17.00;;
6580;SDS011;3324;50.796;7.228;2023-07-20T11:35:43;18.50;;;16.90;;
6580;SDS011;3324;50.796;7.228;2023-07-20T11:38:11;19.90;;;18.00;;
6580;SDS011;3324;50.796;7.228;2023-07-20T11:40:42;19.13;;;17.42;;
6580;SDS011;3324;50.796;7.228;2023-07-20T11:43:14;18.90;;;17.30;;
6580;SDS011;3324;50.796;7.228;2023-07-20T11:45:40;18.80;;;17.20;;
6580;SDS011;3324;50.796;7.228;2023-07-20T11:48:06;18.50;;;16.80;;
6580;SDS011;3324;50.796;7.228;2023-07-20T11:50:31;18.20;;;16.70;;
6580;SDS011;3324;50.796;7.228;2023-07-20T11:53:03;19.05;;;17.25;;
6580;SDS011;3324;50.796;7.228;2023-07-20T11:55:28;17.90;;;16.40;;
6580;SDS011;3324;50.796;7.228;2023-07-20T11:58:06;17.70;;;16.30;;
6580;SDS011;3324;50.796;7.228;2023-07-20T12:00:33;18.00;;;16.50;;
6580;SDS011;3324;50.796;7.228;2023-07-20T12:03:00;17.80;;;16.40;;
6580;SDS011;3324;50.796;7.228;2023-07-20T12:05:26;17.80;;;16.40;;
6580;SDS011;3324;50.796;7.228;2023-07-20T12:07:52;18.90;;;17.20;;
6580;SDS011;3324;50.796;7.228;2023-07-20T12:10:26;19.20;;;17.40;;
6580;SDS011;3324;50.796;7.228;2023-07-20T12:12:53;18.70;;;17.10;;
6580;SDS011;3324;50.796;7.228;2023-07-20T12:15:23;17.90;;;16.40;;
6580;SDS011;3324;50.796;7.228;2023-07-20T12:17:55;17.60;;;16.20;;
6580;SDS011;3324;50.796;7.228;2023-07-20T12:22:52;18.50;;;16.90;;
6580;SDS011;3324;50.796;7.228;2023-07-20T12:25:17;18.60;;;16.90;;
6580;SDS011;3324;50.796;7.228;2023-07-20T12:27:46;17.30;;;15.90;;
6580;SDS011;3324;50.796;7.228;2023-07-20T12:30:13;16.80;;;15.50;;
6580;SDS011;3324;50.796;7.228;2023-07-20T12:32:39;16.70;;;15.40;;
6580;SDS011;3324;50.796;7.228;2023-07-20T12:35:05;19.30;;;17.30;;
6580;SDS011;3324;50.796;7.228;2023-07-20T12:37:31;18.10;;;16.50;;
6580;SDS011;3324;50.796;7.228;2023-07-20T12:39:57;18.45;;;16.90;;
6580;SDS011;3324;50.796;7.228;2023-07-20T12:42:22;17.50;;;16.10;;
6580;SDS011;3324;50.796;7.228;2023-07-20T12:44:48;18.80;;;16.80;;
6580;SDS011;3324;50.796;7.228;2023-07-20T12:47:14;16.90;;;15.60;;
6580;SDS011;3324;50.796;7.228;2023-07-20T12:49:40;18.10;;;16.60;;
6580;SDS011;3324;50.796;7.228;2023-07-20T12:52:10;18.20;;;16.70;;
6580;SDS011;3324;50.796;7.228;2023-07-20T12:54:36;19.40;;;17.20;;
6580;SDS011;3324;50.796;7.228;2023-07-20T12:57:01;19.00;;;17.30;;
6580;SDS011;3324;50.796;7.228;2023-07-20T12:59:28;19.50;;;17.75;;
6580;SDS011;3324;50.796;7.228;2023-07-20T13:01:54;19.10;;;17.40;;
6580;SDS011;3324;50.796;7.228;2023-07-20T13:04:20;20.65;;;18.00;;
6580;SDS011;3324;50.796;7.228;2023-07-20T13:06:45;19.00;;;17.30;;
6580;SDS011;3324;50.796;7.228;2023-07-20T13:09:11;18.70;;;17.10;;
6580;SDS011;3324;50.796;7.228;2023-07-20T13:11:36;19.50;;;17.60;;
6580;SDS011;3324;50.796;7.228;2023-07-20T13:14:02;18.77;;;17.17;;
6580;SDS011;3324;50.796;7.228;2023-07-20T13:16:28;19.70;;;17.80;;
6580;SDS011;3324;50.796;7.228;2023-07-20T13:18:53;19.00;;;17.30;;
6580;SDS011;3324;50.796;7.228;2023-07-20T13:21:19;17.70;;;16.20;;
6580;SDS011;3324;50.796;7.228;2023-07-20T13:23:47;18.33;;;16.83;;
6580;SDS011;3324;50.796;7.228;2023-07-20T13:26:13;18.80;;;17.20;;
6580;SDS011;3324;50.796;7.228;2023-07-20T13:28:40;17.98;;;16.48;;
6580;SDS011;3324;50.796;7.228;2023-07-20T13:31:06;19.40;;;17.60;;
6580;SDS011;3324;50.796;7.228;2023-07-20T13:33:33;18.60;;;17.00;;
6580;SDS011;3324;50.796;7.228;2023-07-20T13:35:59;19.90;;;17.70;;
6580;SDS011;3324;50.796;7.228;2023-07-20T13:38:24;17.60;;;16.20;;
6580;SDS011;3324;50.796;7.228;2023-07-20T13:40:50;17.85;;;16.45;;
6580;SDS011;3324;50.796;7.228;2023-07-20T13:43:15;16.10;;;14.90;;
6580;SDS011;3324;50.796;7.228;2023-07-20T13:45:41;16.33;;;15.13;;
6580;SDS011;3324;50.796;7.228;2023-07-20T13:48:07;18.00;;;16.40;;
6580;SDS011;3324;50.796;7.228;2023-07-20T13:50:32;17.30;;;15.90;;
6580;SDS011;3324;50.796;7.228;2023-07-20T13:52:58;17.00;;;15.70;;
6580;SDS011;3324;50.796;7.228;2023-07-20T13:55:24;17.60;;;16.10;;
6580;SDS011;3324;50.796;7.228;2023-07-20T13:57:49;15.80;;;14.70;;
6580;SDS011;3324;50.796;7.228;2023-07-20T14:00:15;17.10;;;15.60;;
6580;SDS011;3324;50.796;7.228;2023-07-20T14:02:41;18.30;;;16.70;;
6580;SDS011;3324;50.796;7.228;2023-07-20T14:05:07;17.70;;;16.30;;
6580;SDS011;3324;50.796;7.228;2023-07-20T14:07:34;17.55;;;16.15;;
6580;SDS011;3324;50.796;7.228;2023-07-20T14:10:00;16.30;;;15.10;;
6580;SDS011;3324;50.796;7.228;2023-07-20T14:12:26;16.30;;;15.10;;
6580;SDS011;3324;50.796;7.228;2023-07-20T14:14:52;16.60;;;15.30;;
6580;SDS011;3324;50.796;7.228;2023-07-20T14:17:19;15.60;;;14.40;;
6580;SDS011;3324;50.796;7.228;2023-07-20T14:19:44;15.40;;;14.30;;
6580;SDS011;3324;50.796;7.228;2023-07-20T14:22:10;15.30;;;14.27;;
6580;SDS011;3324;50.796;7.228;2023-07-20T14:24:36;17.40;;;15.60;;
6580;SDS011;3324;50.796;7.228;2023-07-20T14:27:01;15.30;;;14.30;;
6580;SDS011;3324;50.796;7.228;2023-07-20T14:29:27;16.60;;;15.20;;
6580;SDS011;3324;50.796;7.228;2023-07-20T14:31:56;15.30;;;14.30;;
6580;SDS011;3324;50.796;7.228;2023-07-20T14:34:22;16.20;;;15.10;;
6580;SDS011;3324;50.796;7.228;2023-07-20T14:36:48;15.85;;;14.75;;
6580;SDS011;3324;50.796;7.228;2023-07-20T14:39:15;16.60;;;15.40;;
6580;SDS011;3324;50.796;7.228;2023-07-20T14:41:40;17.10;;;15.70;;
6580;SDS011;3324;50.796;7.228;2023-07-20T14:44:06;16.10;;;14.90;;
6580;SDS011;3324;50.796;7.228;2023-07-20T14:46:32;16.10;;;14.90;;
6580;SDS011;3324;50.796;7.228;2023-07-20T14:48:57;17.10;;;15.80;;
6580;SDS011;3324;50.796;7.228;2023-07-20T14:51:23;15.90;;;14.80;;
6580;SDS011;3324;50.796;7.228;2023-07-20T14:53:49;15.10;;;14.10;;
6580;SDS011;3324;50.796;7.228;2023-07-20T14:56:15;16.90;;;15.50;;
6580;SDS011;3324;50.796;7.228;2023-07-20T14:58:40;16.60;;;15.40;;
6580;SDS011;3324;50.796;7.228;2023-07-20T15:01:06;15.10;;;14.10;;
6580;SDS011;3324;50.796;7.228;2023-07-20T15:03:31;15.80;;;14.70;;
6580;SDS011;3324;50.796;7.228;2023-07-20T15:05:57;16.10;;;15.00;;